Time;durP1;ratioP1;P1;durP2;ratioP2;P2;SDS_P1;SDS_P2;PMS_P1;PMS_P2;Temp;Humidity;BMP_temperature;BMP_pressure;BME280_temperature;BME280_humidity;BME280_pressure;Samples;Min_cycle;Max_cycle;Signal;HPM_P1;HPM_P2
2023/03/26 00:01:22;;;;;;;3.60;1.23;;;8.10;83.20;;;8.10;70.37;97339.00;5081550;28;20449;-66
2023/03/26 00:03:53;;;;;;;2.97;1.20;;;8.10;83.30;;;8.16;70.13;97343.53;5098327;27;20459;-67
2023/03/26 00:06:22;;;;;;;4.00;1.60;;;8.10;83.50;;;8.07;70.42;97339.44;5098324;28;20802;-66
2023/03/26 00:08:51;;;;;;;4.10;1.30;;;8.20;83.00;;;8.20;70.11;97341.25;5083195;28;21007;-64
2023/03/26 00:11:20;;;;;;;6.20;1.33;;;8.20;82.90;;;8.13;70.12;97348.50;5082317;28;20489;-66
2023/03/26 00:13:48;;;;;;;2.03;1.10;;;8.20;82.80;;;8.18;70.46;97349.53;5069550;28;20545;-64
2023/03/26 00:16:19;;;;;;;6.80;1.60;;;8.20;82.90;;;8.12;70.73;97354.94;5085737;28;20457;-66
2023/03/26 00:18:47;;;;;;;5.10;1.23;;;8.10;83.00;;;8.10;70.09;97347.06;5084936;28;20543;-65
2023/03/26 00:21:18;;;;;;;2.07;0.97;;;8.20;82.60;;;8.13;69.72;97348.50;5102593;28;20516;-66
2023/03/26 00:23:46;;;;;;;5.17;1.30;;;8.20;82.40;;;8.12;70.06;97355.78;5085534;28;20483;-66
2023/03/26 00:26:14;;;;;;;2.97;1.00;;;8.20;82.50;;;8.04;69.83;97334.50;5086216;28;20458;-66
2023/03/26 00:28:42;;;;;;;3.17;1.17;;;8.20;82.50;;;8.22;69.90;97345.34;5084682;28;20457;-66
2023/03/26 00:31:12;;;;;;;4.83;1.50;;;8.20;82.60;;;8.04;70.34;97347.94;5086968;28;20472;-67
2023/03/26 00:33:42;;;;;;;3.33;0.93;;;8.10;82.60;;;7.77;71.77;97348.06;5087534;28;20452;-66
2023/03/26 00:36:13;;;;;;;2.80;1.20;;;8.00;83.10;;;7.84;71.31;97359.63;5084745;28;20450;-66
2023/03/26 00:38:41;;;;;;;3.43;1.17;;;8.00;83.50;;;7.94;70.72;97359.97;5087438;28;20439;-65
2023/03/26 00:41:16;;;;;;;7.83;1.70;;;8.00;83.40;;;7.83;71.55;97355.31;5086088;28;20454;-66
2023/03/26 00:43:47;;;;;;;4.80;2.07;;;8.00;83.50;;;7.89;71.56;97354.44;5085099;28;20446;-65
2023/03/26 00:46:16;;;;;;;3.67;1.27;;;8.00;83.70;;;8.01;70.72;97353.75;5084252;28;20781;-65
2023/03/26 00:48:45;;;;;;;6.10;1.83;;;8.00;83.40;;;8.02;71.02;97356.22;5080763;28;20452;-66
2023/03/26 00:51:15;;;;;;;7.03;1.67;;;8.00;83.70;;;8.01;70.64;97345.69;5086295;28;21011;-66
2023/03/26 00:53:43;;;;;;;4.80;1.30;;;8.00;83.50;;;7.97;70.86;97339.91;5086245;28;20454;-65
2023/03/26 00:56:11;;;;;;;3.60;1.47;;;8.00;83.40;;;8.02;71.10;97344.66;5080753;28;20457;-65
2023/03/26 00:58:38;;;;;;;3.37;1.37;;;8.00;83.70;;;7.88;71.88;97342.03;5082464;28;20460;-65
2023/03/26 01:01:09;;;;;;;3.80;1.00;;;7.90;83.80;;;7.68;72.73;97333.22;5069983;28;20439;-66
2023/03/26 01:03:38;;;;;;;5.80;1.47;;;7.90;84.00;;;7.81;71.84;97335.88;5077486;28;20459;-66
2023/03/26 01:06:08;;;;;;;4.70;1.87;;;7.90;84.10;;;7.94;71.54;97341.16;5077715;28;20458;-66
2023/03/26 01:08:39;;;;;;;3.90;1.60;;;7.90;84.10;;;7.83;72.19;97338.31;5085669;28;20527;-65
2023/03/26 01:11:12;;;;;;;7.57;1.43;;;7.90;84.20;;;7.88;72.10;97341.19;5086775;28;20465;-66
2023/03/26 01:13:43;;;;;;;4.73;1.30;;;7.90;84.10;;;7.87;72.36;97335.00;5099840;28;20495;-65
2023/03/26 01:16:24;;;;;;;3.33;1.10;;;7.90;84.40;;;7.86;71.69;97327.13;5078730;28;20438;-66
2023/03/26 01:18:51;;;;;;;5.67;1.30;;;8.00;84.20;;;7.90;71.85;97337.25;5086780;28;20453;-65
2023/03/26 01:21:28;;;;;;;3.23;1.10;;;8.00;84.10;;;7.90;71.73;97329.19;5084647;28;20956;-65
2023/03/26 01:24:00;;;;;;;3.63;1.27;;;8.00;84.00;;;7.74;72.50;97330.53;5085629;28;20453;-65
2023/03/26 01:26:54;;;;;;;4.10;1.07;;;7.90;84.30;;;7.87;72.16;97326.94;5079551;28;21042;-66
2023/03/26 01:29:31;;;;;;;6.80;1.93;;;7.90;84.30;;;7.78;72.58;97330.91;5081437;28;20453;-66
2023/03/26 01:32:10;;;;;;;2.57;1.30;;;7.90;84.70;;;7.77;72.33;97324.72;5085809;28;20534;-66
2023/03/26 01:34:56;;;;;;;5.97;1.50;;;7.90;84.90;;;7.86;72.39;97333.34;5085970;28;20451;-65
2023/03/26 01:37:31;;;;;;;4.43;1.37;;;7.90;84.70;;;7.69;72.75;97318.75;5086953;28;20446;-66
2023/03/26 01:40:05;;;;;;;4.77;1.37;;;7.90;84.40;;;7.29;72.48;97260.63;5084632;28;20461;-65
2023/03/26 01:42:41;;;;;;;6.37;2.40;;;7.90;84.70;;;7.58;72.96;97318.38;5082320;28;20438;-65
2023/03/26 01:45:13;;;;;;;3.40;1.37;;;7.80;85.00;;;7.67;72.76;97323.53;5066142;28;20914;-66
2023/03/26 01:47:42;;;;;;;5.20;1.70;;;7.80;85.50;;;7.69;72.80;97316.06;5065673;28;20507;-65
2023/03/26 01:50:10;;;;;;;2.93;1.07;;;7.80;85.30;;;7.67;72.84;97318.94;5079345;28;20523;-66
2023/03/26 01:52:38;;;;;;;8.17;1.60;;;7.70;85.50;;;7.61;73.32;97315.25;5085182;28;20541;-64
2023/03/26 01:55:10;;;;;;;2.53;1.43;;;7.70;86.00;;;7.48;73.84;97309.94;5084892;28;20745;-65
2023/03/26 01:57:48;;;;;;;5.07;1.40;;;7.60;86.00;;;7.41;73.26;97293.00;5089973;28;20442;-65
2023/03/26 02:00:28;;;;;;;10.07;1.80;;;7.60;86.10;;;7.53;73.50;97312.81;5089838;28;20504;-66
2023/03/26 02:03:16;;;;;;;7.90;1.30;;;7.60;86.40;;;7.51;73.65;97296.09;5088809;28;20781;-66
2023/03/26 02:05:51;;;;;;;3.80;1.27;;;7.60;86.30;;;7.45;73.59;97300.44;5086224;28;20493;-66
2023/03/26 02:08:24;;;;;;;4.83;1.53;;;7.60;86.20;;;7.50;73.49;97295.25;5105187;28;20456;-65
2023/03/26 02:10:57;;;;;;;3.97;1.20;;;7.50;86.50;;;7.38;74.14;97294.25;5077894;28;20486;-66
2023/03/26 02:13:26;;;;;;;2.97;1.63;;;7.50;86.80;;;7.36;74.04;97289.13;5084559;28;20534;-66
2023/03/26 02:15:59;;;;;;;2.97;1.60;;;7.40;87.20;;;7.41;73.68;97282.25;5088430;28;20887;-65
2023/03/26 02:18:35;;;;;;;4.80;1.63;;;7.40;87.40;;;7.46;73.29;97287.81;5091475;28;20583;-65
2023/03/26 02:21:04;;;;;;;4.80;1.40;;;7.40;87.30;;;7.35;73.67;97267.81;5089934;28;20477;-64
2023/03/26 02:23:34;;;;;;;10.57;2.60;;;7.40;86.90;;;7.34;73.92;97269.66;5084149;28;20443;-68
2023/03/26 02:26:06;;;;;;;4.67;1.60;;;7.40;86.90;;;7.19;73.83;97259.19;5088420;28;20537;-66
2023/03/26 02:28:34;;;;;;;2.70;1.37;;;7.40;86.80;;;7.22;74.11;97263.31;5088983;28;20439;-65
2023/03/26 02:31:01;;;;;;;4.23;1.53;;;7.30;86.80;;;7.25;73.96;97270.13;5089967;28;20470;-66
2023/03/26 02:33:29;;;;;;;6.30;1.67;;;7.30;87.00;;;7.19;73.63;97252.97;5090587;28;20535;-66
2023/03/26 02:35:58;;;;;;;7.63;1.50;;;7.30;86.80;;;7.34;73.29;97264.28;5087860;28;20441;-66
2023/03/26 02:38:26;;;;;;;6.57;1.43;;;7.40;86.70;;;7.35;73.33;97265.97;5085982;28;20440;-64
2023/03/26 02:40:54;;;;;;;4.87;1.80;;;7.40;86.40;;;6.74;72.77;97147.16;5087033;28;20605;-65
2023/03/26 02:43:22;;;;;;;7.77;1.60;;;7.50;85.90;;;7.27;73.63;97255.44;5089398;28;20457;-65
2023/03/26 02:45:50;;;;;;;3.10;1.50;;;7.40;86.00;;;7.32;73.44;97252.94;5086317;28;20447;-65
2023/03/26 02:48:17;;;;;;;7.90;1.83;;;7.40;86.20;;;7.47;72.90;97254.53;5085829;28;20453;-66
2023/03/26 02:50:48;;;;;;;6.90;1.70;;;7.50;85.80;;;7.51;72.71;97261.13;5068239;28;20470;-65
2023/03/26 02:53:16;;;;;;;6.10;1.90;;;7.50;85.40;;;7.42;72.91;97257.84;5085731;28;20470;-65
2023/03/26 02:55:43;;;;;;;3.87;1.40;;;7.40;85.80;;;7.28;73.26;97261.63;5085798;28;20460;-65
2023/03/26 02:58:11;;;;;;;3.67;1.50;;;7.40;85.90;;;7.16;73.24;97253.41;5088165;28;20454;-65
2023/03/26 03:00:39;;;;;;;1.93;1.20;;;7.30;86.20;;;7.06;74.13;97243.13;5089620;28;20481;-66
2023/03/26 03:03:08;;;;;;;4.17;1.57;;;7.20;86.70;;;6.82;74.96;97247.31;5087191;28;20786;-64
2023/03/26 03:05:36;;;;;;;9.90;2.13;;;7.00;87.50;;;6.77;75.14;97248.78;5086861;28;20471;-65
2023/03/26 03:08:05;;;;;;;4.47;1.60;;;6.90;88.10;;;6.78;74.86;97242.38;5086661;28;20448;-65
2023/03/26 03:10:32;;;;;;;2.83;1.27;;;6.80;88.40;;;6.80;74.62;97244.84;5086195;28;20462;-64
2023/03/26 03:13:00;;;;;;;4.23;1.47;;;6.80;89.10;;;6.71;74.79;97230.81;5086372;28;20459;-66
2023/03/26 03:15:27;;;;;;;8.53;1.70;;;6.70;89.10;;;6.58;75.39;97241.56;5087485;28;20917;-65
2023/03/26 03:17:55;;;;;;;8.43;2.03;;;6.70;89.90;;;6.68;75.24;97239.28;5078878;28;20464;-65
2023/03/26 03:20:23;;;;;;;5.53;1.70;;;6.70;88.80;;;6.58;74.97;97220.09;5086628;28;20796;-66
2023/03/26 03:22:50;;;;;;;4.40;2.03;;;6.60;89.30;;;6.63;75.12;97223.00;5086818;28;21059;-66
2023/03/26 03:25:20;;;;;;;10.37;1.90;;;6.60;89.20;;;6.47;75.49;97225.09;5083092;28;20452;-66
2023/03/26 03:27:49;;;;;;;5.87;1.80;;;6.50;89.90;;;6.45;75.64;97218.25;5087802;28;20455;-66
2023/03/26 03:30:16;;;;;;;7.13;2.00;;;6.50;89.90;;;6.57;74.71;97219.28;5089408;28;20900;-66
2023/03/26 03:32:43;;;;;;;3.40;1.70;;;6.60;89.80;;;6.57;74.63;97205.03;5088023;28;20444;-65
2023/03/26 03:35:12;;;;;;;13.77;2.07;;;6.50;89.30;;;6.50;74.92;97208.56;5090216;28;20940;-64
2023/03/26 03:37:39;;;;;;;4.53;1.87;;;6.50;89.80;;;6.49;74.91;97211.44;5081397;28;20506;-64
2023/03/26 03:40:09;;;;;;;8.40;3.20;;;6.50;90.00;;;6.50;75.46;97207.72;5079727;28;20451;-65
2023/03/26 03:42:37;;;;;;;7.77;1.70;;;6.40;90.10;;;6.44;75.17;97204.00;5088823;28;21240;-66
2023/03/26 03:45:05;;;;;;;9.23;2.00;;;6.40;90.20;;;6.35;75.59;97189.19;5071152;28;20453;-65
2023/03/26 03:47:32;;;;;;;5.80;1.87;;;6.40;90.30;;;6.40;75.36;97197.41;5087099;28;20535;-66
2023/03/26 03:50:00;;;;;;;7.13;2.43;;;6.40;90.20;;;6.37;75.54;97192.47;5087306;28;20467;-65
2023/03/26 03:52:28;;;;;;;9.53;1.70;;;6.50;89.80;;;6.55;75.25;97191.84;5087636;28;20808;-66
2023/03/26 03:54:56;;;;;;;3.87;1.53;;;6.60;89.20;;;6.70;74.14;97190.78;5082396;28;20480;-65
2023/03/26 03:57:24;;;;;;;6.07;1.50;;;6.60;88.30;;;6.71;74.42;97190.53;5087459;28;21107;-65
2023/03/26 03:59:52;;;;;;;6.00;2.13;;;6.70;88.30;;;6.54;74.56;97178.63;5086630;28;20448;-66
2023/03/26 04:02:24;;;;;;;5.97;2.60;;;6.70;88.10;;;6.61;74.74;97195.53;5087443;28;20434;-65
2023/03/26 04:04:52;;;;;;;6.23;2.13;;;6.60;88.50;;;6.54;74.79;97192.88;5100910;28;20458;-65
2023/03/26 04:07:19;;;;;;;5.07;1.83;;;6.60;89.00;;;6.57;75.03;97191.59;5087362;28;20530;-65
2023/03/26 04:09:48;;;;;;;6.53;1.50;;;6.70;89.20;;;6.73;74.63;97201.88;5084958;28;20523;-66
2023/03/26 04:12:15;;;;;;;6.93;1.70;;;6.70;89.00;;;6.66;75.05;97199.22;5086519;28;20568;-65
2023/03/26 04:14:42;;;;;;;5.93;1.77;;;6.70;89.50;;;6.66;75.16;97204.59;5087629;28;20439;-66
2023/03/26 04:17:12;;;;;;;10.90;2.00;;;6.60;89.90;;;6.36;76.70;97197.00;5083217;28;20489;-65
2023/03/26 04:19:39;;;;;;;2.70;2.07;;;6.50;90.80;;;6.37;76.95;97203.22;5085632;28;20458;-66
2023/03/26 04:22:08;;;;;;;5.70;2.53;;;6.50;91.00;;;6.41;76.92;97192.91;5081568;28;20438;-65
2023/03/26 04:24:37;;;;;;;8.67;2.17;;;6.50;91.00;;;6.27;77.47;97198.28;5079590;28;20496;-66
2023/03/26 04:27:07;;;;;;;7.13;2.00;;;6.40;91.50;;;6.09;78.00;97169.38;5079170;28;20446;-64
2023/03/26 04:29:41;;;;;;;7.10;2.40;;;6.40;91.70;;;6.36;78.20;97185.47;5099794;28;20478;-66
2023/03/26 04:32:18;;;;;;;6.23;2.20;;;6.40;92.00;;;6.47;77.84;97192.03;5066400;28;20497;-65
2023/03/26 04:34:46;;;;;;;4.10;2.20;;;6.40;91.80;;;6.51;77.57;97180.69;5076059;28;20444;-65
2023/03/26 04:37:25;;;;;;;6.97;2.33;;;6.40;92.30;;;6.33;77.97;97167.09;5085501;28;20469;-66
2023/03/26 04:39:53;;;;;;;7.90;2.17;;;6.40;92.30;;;6.32;77.71;97157.41;5084422;28;20454;-65
2023/03/26 04:42:21;;;;;;;4.40;2.07;;;6.40;92.20;;;6.32;78.19;97157.41;5086475;28;20465;-66
2023/03/26 04:44:49;;;;;;;6.50;2.07;;;6.30;92.40;;;6.34;78.18;97155.34;5087107;28;20438;-65
2023/03/26 04:47:17;;;;;;;5.57;1.80;;;6.30;92.90;;;6.33;78.70;97159.06;5086786;28;20550;-66
2023/03/26 04:49:46;;;;;;;6.10;2.00;;;6.30;93.20;;;6.30;78.96;97156.81;5097826;27;20569;-66
2023/03/26 04:52:13;;;;;;;6.67;2.50;;;6.30;93.00;;;6.18;79.32;97156.59;5085900;28;20483;-66
2023/03/26 04:54:43;;;;;;;7.70;1.90;;;6.20;93.70;;;6.25;79.35;97157.41;5084393;28;20495;-65
2023/03/26 04:57:16;;;;;;;7.03;2.40;;;6.30;93.70;;;6.45;78.31;97143.13;5084662;28;20453;-65
2023/03/26 04:59:45;;;;;;;5.13;2.33;;;6.40;93.30;;;6.44;78.32;97144.16;5086690;28;20449;-65
2023/03/26 05:02:13;;;;;;;5.20;1.90;;;6.50;92.80;;;6.44;78.85;97139.59;5085228;28;20445;-66
2023/03/26 05:04:42;;;;;;;5.43;1.90;;;6.50;92.70;;;6.56;78.12;97139.81;5083876;28;20447;-66
2023/03/26 05:07:11;;;;;;;7.00;2.00;;;6.50;93.20;;;6.63;77.45;97129.06;5086387;28;20525;-66
2023/03/26 05:09:41;;;;;;;4.67;1.83;;;6.60;92.20;;;6.63;77.40;97137.09;5084419;28;20525;-65
2023/03/26 05:12:08;;;;;;;5.00;1.80;;;6.70;92.00;;;6.62;78.16;97127.41;5084679;28;20978;-65
2023/03/26 05:14:36;;;;;;;3.70;2.10;;;6.70;91.80;;;6.80;76.86;97119.47;5077121;28;20534;-65
2023/03/26 05:17:09;;;;;;;4.67;1.90;;;6.80;91.40;;;6.62;77.44;97108.63;5076819;28;20460;-66
2023/03/26 05:19:36;;;;;;;7.07;2.73;;;6.80;91.30;;;6.66;77.36;97113.31;5082942;28;20954;-66
2023/03/26 05:22:04;;;;;;;5.10;2.13;;;6.80;91.20;;;6.67;76.99;97108.78;5084688;28;20550;-65
2023/03/26 05:24:31;;;;;;;5.37;2.17;;;6.80;91.00;;;6.73;76.95;97110.59;5086768;28;20454;-66
2023/03/26 05:26:58;;;;;;;6.60;2.00;;;6.80;91.10;;;6.79;76.44;97106.25;5090347;28;20458;-65
2023/03/26 05:29:25;;;;;;;1.77;1.60;;;6.90;90.70;;;6.75;76.91;97097.81;5089537;28;21053;-65
2023/03/26 05:31:53;;;;;;;4.30;2.03;;;6.90;90.60;;;6.61;76.92;97085.50;5090079;28;20956;-66
2023/03/26 05:34:23;;;;;;;4.40;1.63;;;6.90;90.50;;;6.57;77.50;97090.44;5083063;28;21013;-65
2023/03/26 05:36:50;;;;;;;4.27;1.60;;;6.80;90.70;;;6.80;76.58;97095.31;5089492;28;20475;-65
2023/03/26 05:39:18;;;;;;;4.93;2.57;;;6.90;90.60;;;6.88;76.39;97085.34;5090325;28;20434;-65
2023/03/26 05:41:45;;;;;;;5.57;1.80;;;6.90;90.60;;;6.90;76.59;97077.91;5104079;28;20461;-66
2023/03/26 05:44:12;;;;;;;4.00;2.13;;;7.00;90.50;;;7.00;75.75;97083.63;5077089;28;20464;-65
2023/03/26 05:46:40;;;;;;;5.20;2.27;;;7.00;90.20;;;6.92;76.15;97075.84;5079802;28;20911;-66
2023/03/26 05:49:07;;;;;;;4.40;2.23;;;7.00;90.10;;;7.27;74.50;97071.88;5085617;28;20474;-66
2023/03/26 05:51:35;;;;;;;6.70;2.50;;;7.10;89.50;;;7.27;73.86;97039.66;5089392;28;20546;-66
2023/03/26 05:54:04;;;;;;;4.67;1.97;;;7.20;89.00;;;7.23;74.23;97066.16;5088991;28;20446;-65
2023/03/26 05:56:31;;;;;;;7.83;2.20;;;7.20;88.50;;;7.17;74.85;97061.63;5087674;28;20550;-65
2023/03/26 05:58:58;;;;;;;8.53;3.20;;;7.30;88.50;;;7.41;73.95;97051.94;5090279;28;20492;-66
2023/03/26 06:01:25;;;;;;;8.40;2.47;;;7.30;88.00;;;7.30;73.96;97048.09;5086597;28;21023;-66
2023/03/26 06:03:52;;;;;;;9.27;2.73;;;7.40;87.20;;;7.44;73.62;97045.31;5084577;28;20469;-66
2023/03/26 06:06:21;;;;;;;4.80;2.40;;;7.50;87.00;;;7.50;72.67;97045.25;5086605;28;20968;-67
2023/03/26 06:08:53;;;;;;;3.47;2.00;;;7.60;86.50;;;7.58;73.21;97033.41;5090156;28;20524;-66
2023/03/26 06:11:21;;;;;;;3.40;1.77;;;7.60;86.20;;;7.90;72.18;97037.91;5086712;28;20474;-66
2023/03/26 06:13:48;;;;;;;5.77;2.03;;;7.70;85.80;;;7.89;71.90;97030.88;5090324;28;20448;-66
2023/03/26 06:16:16;;;;;;;4.73;2.20;;;7.90;85.10;;;7.90;72.37;97027.13;5088893;28;20514;-67
2023/03/26 06:18:44;;;;;;;6.03;2.23;;;8.00;84.80;;;7.95;71.38;97016.53;5087914;28;20459;-66
2023/03/26 06:21:11;;;;;;;4.90;2.43;;;8.00;84.00;;;8.02;71.54;97021.84;5087142;28;20461;-66
2023/03/26 06:23:38;;;;;;;5.63;2.20;;;8.10;84.10;;;7.94;71.30;97018.38;5089954;28;20533;-66
2023/03/26 06:26:07;;;;;;;6.50;1.90;;;8.10;83.80;;;7.86;71.27;97021.38;5086814;28;20492;-66
2023/03/26 06:28:35;;;;;;;6.47;2.10;;;8.00;83.60;;;7.75;72.18;97019.41;5088435;28;20441;-65
2023/03/26 06:31:02;;;;;;;9.27;1.80;;;7.90;84.20;;;7.48;72.74;97009.72;5086995;28;20450;-65
2023/03/26 06:33:30;;;;;;;3.40;1.97;;;7.80;84.40;;;7.68;72.72;97007.91;5084626;28;20524;-65
2023/03/26 06:35:57;;;;;;;5.00;1.90;;;7.80;84.90;;;7.64;72.97;97013.69;5089395;28;20436;-66
2023/03/26 06:38:25;;;;;;;6.90;1.73;;;7.80;84.80;;;7.77;72.34;97011.94;5088881;28;20446;-66
2023/03/26 06:40:52;;;;;;;3.37;1.43;;;7.90;84.70;;;7.77;72.01;97017.31;5089267;28;20536;-65
2023/03/26 06:43:21;;;;;;;5.03;1.90;;;7.90;84.20;;;7.77;72.12;97020.00;5102722;28;20937;-66
2023/03/26 06:45:51;;;;;;;6.67;1.77;;;7.90;84.30;;;8.10;71.76;97016.13;5086981;28;20442;-66
2023/03/26 06:48:19;;;;;;;6.43;2.20;;;8.10;84.30;;;8.02;71.71;97019.13;5089327;28;20495;-65
2023/03/26 06:50:47;;;;;;;7.67;2.20;;;8.10;84.10;;;8.17;71.20;97006.13;5087351;28;21142;-64
2023/03/26 06:53:14;;;;;;;4.70;2.27;;;8.20;84.00;;;7.83;71.88;97010.22;5081208;28;21031;-65
2023/03/26 06:55:41;;;;;;;6.00;1.60;;;8.10;83.80;;;7.91;71.95;97000.00;5080212;28;21040;-65
2023/03/26 06:58:11;;;;;;;3.10;1.87;;;8.10;83.90;;;7.98;72.20;97007.19;5086339;28;20572;-66
2023/03/26 07:00:41;;;;;;;6.07;2.17;;;8.10;84.20;;;8.06;71.53;97002.34;5087016;28;20437;-66
2023/03/26 07:03:10;;;;;;;3.80;1.60;;;8.20;84.00;;;8.05;71.52;96994.47;5102959;28;21028;-65
2023/03/26 07:05:37;;;;;;;5.27;2.00;;;8.20;83.80;;;7.94;72.23;96994.16;5085633;28;20831;-65
2023/03/26 07:08:05;;;;;;;6.43;1.63;;;8.20;83.90;;;8.17;70.71;96981.09;5088299;28;20454;-66
2023/03/26 07:10:32;;;;;;;2.50;1.40;;;8.20;83.60;;;8.03;72.06;96989.31;5088405;28;20480;-64
2023/03/26 07:12:59;;;;;;;3.23;1.53;;;8.20;83.80;;;7.99;72.53;96998.06;5089843;28;20569;-65
2023/03/26 07:15:28;;;;;;;4.10;1.47;;;8.20;84.10;;;8.04;71.70;97004.44;5081376;28;20467;-65
2023/03/26 07:17:56;;;;;;;2.93;1.90;;;8.20;83.80;;;8.20;70.94;97005.69;5086431;28;21228;-65
2023/03/26 07:20:25;;;;;;;5.03;2.63;;;8.30;83.70;;;8.20;71.37;97002.19;5091198;28;20447;-66
2023/03/26 07:22:52;;;;;;;6.70;1.43;;;8.30;83.40;;;8.09;71.37;97001.03;5081478;28;20460;-65
2023/03/26 07:25:21;;;;;;;4.47;1.70;;;8.40;83.20;;;8.23;71.53;96985.59;5096456;28;20449;-65
2023/03/26 07:28:00;;;;;;;3.93;1.47;;;8.30;83.40;;;8.19;70.68;96981.72;5082251;28;20482;-65
2023/03/26 07:30:39;;;;;;;5.20;1.93;;;8.40;83.20;;;8.07;70.79;96920.56;5069650;28;20903;-67
2023/03/26 07:33:15;;;;;;;6.80;1.97;;;8.50;83.30;;;8.41;70.38;96984.72;5087608;28;20566;-66
2023/03/26 07:35:46;;;;;;;5.50;1.50;;;8.50;82.90;;;8.39;70.21;96973.34;5085842;28;20486;-65
2023/03/26 07:38:33;;;;;;;7.03;2.00;;;8.50;82.80;;;8.41;70.32;96973.94;5081811;28;20449;-66
2023/03/26 07:41:09;;;;;;;8.80;2.00;;;8.50;82.80;;;8.43;70.31;96960.28;5078438;28;20453;-65
2023/03/26 07:44:03;;;;;;;6.37;1.90;;;8.50;82.50;;;8.67;69.42;96955.84;5087576;28;20552;-65
2023/03/26 07:46:35;;;;;;;3.90;2.30;;;8.70;82.70;;;8.55;70.04;96941.50;5067133;28;20443;-65
2023/03/26 07:49:05;;;;;;;3.30;2.07;;;8.70;82.30;;;8.65;69.64;96947.16;5072254;28;20904;-66
2023/03/26 07:51:33;;;;;;;5.00;1.80;;;8.70;82.40;;;8.56;69.94;96943.13;5102653;28;20500;-65
2023/03/26 07:54:03;;;;;;;4.57;1.90;;;8.70;82.40;;;8.76;69.58;96937.47;5084707;28;20556;-65
2023/03/26 07:56:36;;;;;;;5.23;1.80;;;8.80;82.40;;;8.67;69.53;96934.28;5084445;28;20504;-66
2023/03/26 07:59:15;;;;;;;4.50;2.07;;;8.80;82.60;;;8.84;70.54;96926.38;5066734;28;20460;-66
2023/03/26 08:02:12;;;;;;;3.43;1.63;;;8.80;83.40;;;8.39;70.86;96927.59;5070152;28;20459;-66
2023/03/26 08:04:55;;;;;;;3.10;1.70;;;8.70;82.80;;;8.77;70.36;96918.41;5083945;28;20588;-67
2023/03/26 08:07:36;;;;;;;2.13;1.57;;;8.80;83.50;;;8.85;70.82;96919.94;5087003;28;20512;-67
2023/03/26 08:10:10;;;;;;;3.23;1.83;;;8.90;83.60;;;8.60;72.00;96907.47;5084466;28;20461;-64
2023/03/26 08:12:49;;;;;;;4.33;1.60;;;8.80;84.00;;;8.42;72.25;96908.34;5085217;28;20475;-65
2023/03/26 08:15:24;;;;;;;4.50;1.93;;;8.70;83.50;;;8.36;71.57;96907.38;5090279;28;20459;-65
2023/03/26 08:17:57;;;;;;;4.50;2.00;;;8.70;83.50;;;8.52;71.68;96912.34;5085276;28;20495;-66
2023/03/26 08:20:40;;;;;;;5.30;2.10;;;8.70;83.80;;;8.52;72.48;96915.88;5088349;28;20454;-65
2023/03/26 08:23:15;;;;;;;5.57;2.17;;;8.60;84.70;;;8.21;73.27;96913.16;5097161;28;20813;-65
2023/03/26 08:25:55;;;;;;;3.47;2.10;;;8.50;84.70;;;8.41;72.63;96890.50;5085181;28;20467;-66
2023/03/26 08:28:37;;;;;;;7.50;1.73;;;8.50;85.50;;;8.47;72.39;96913.84;5087074;28;20454;-65
2023/03/26 08:31:06;;;;;;;4.07;1.80;;;8.60;85.00;;;8.48;73.43;96910.09;5087530;28;20502;-65
2023/03/26 08:33:35;;;;;;;4.83;1.90;;;8.60;86.00;;;8.55;73.10;96898.44;5089189;28;20473;-66
2023/03/26 08:36:04;;;;;;;3.70;2.03;;;8.60;85.70;;;8.42;73.50;96902.94;5086256;28;20533;-66
2023/03/26 08:38:32;;;;;;;4.27;1.77;;;8.60;85.80;;;8.44;73.12;96895.47;5086614;28;20430;-68
2023/03/26 08:42:00;;;;;;;4.43;1.80;;;8.70;85.90;;;8.21;74.91;96883.53;5082952;28;20470;-66
2023/03/26 08:45:03;;;;;;;8.50;2.00;;;8.50;87.00;;;8.10;75.39;96876.25;5002568;28;20437;-67
2023/03/26 08:48:24;;;;;;;3.80;2.17;;;8.40;88.00;;;8.12;76.64;96868.78;5099994;28;20498;-66
2023/03/26 08:51:39;;;;;;;5.10;2.10;;;8.30;90.20;;;8.32;75.92;96867.69;5093675;28;21303;-66
2023/03/26 08:54:47;;;;;;;3.27;1.73;;;8.40;90.60;;;7.99;77.16;96868.97;5094273;28;20527;-67
2023/03/26 08:57:56;;;;;;;6.67;2.40;;;8.40;90.90;;;8.15;77.65;96845.97;5083705;28;20524;-66
2023/03/26 09:00:40;;;;;;;5.10;2.10;;;8.20;91.90;;;8.12;77.18;96836.50;5087258;28;20446;-66
2023/03/26 09:03:49;;;;;;;6.27;2.70;;;8.30;91.50;;;8.39;76.64;96852.25;5083392;28;20478;-67
2023/03/26 09:06:45;;;;;;;3.57;2.67;;;8.40;91.70;;;8.18;77.89;96851.72;5077135;28;20550;-66
2023/03/26 09:09:54;;;;;;;4.27;2.10;;;8.40;92.00;;;8.14;78.68;96837.09;5083233;28;20494;-66
2023/03/26 09:13:15;;;;;;;5.50;2.20;;;8.30;92.60;;;8.22;78.45;96839.44;5081251;28;20473;-65
2023/03/26 09:16:34;;;;;;;5.63;2.73;;;8.30;92.60;;;8.48;78.28;96839.28;5085236;28;20484;-69
2023/03/26 09:19:33;;;;;;;6.37;2.23;;;8.30;93.40;;;8.43;78.17;96852.63;5066201;28;20448;-65
2023/03/26 09:22:43;;;;;;;5.90;2.43;;;8.40;92.90;;;8.20;78.95;96843.44;5076460;28;20441;-64
2023/03/26 09:25:41;;;;;;;3.90;2.30;;;8.30;93.10;;;7.74;80.50;96781.16;5082998;28;20457;-66
2023/03/26 09:28:42;;;;;;;6.23;3.07;;;8.30;93.80;;;8.18;79.85;96835.56;5085245;28;20537;-66
2023/03/26 09:31:56;;;;;;;6.37;2.40;;;8.30;94.40;;;8.43;80.17;96823.00;5085992;28;20460;-67
2023/03/26 09:34:30;;;;;;;5.90;2.70;;;8.40;94.70;;;8.83;78.88;96825.09;5068014;28;20625;-66
2023/03/26 09:37:18;;;;;;;3.57;2.40;;;8.60;94.20;;;8.33;78.82;96791.28;5084426;28;21006;-67
2023/03/26 09:40:00;;;;;;;4.70;2.80;;;8.70;92.70;;;8.62;78.39;96829.97;5070065;28;20449;-66
2023/03/26 09:42:43;;;;;;;4.30;2.47;;;8.70;92.70;;;8.38;79.42;96831.75;5083852;28;20457;-65
2023/03/26 09:45:49;;;;;;;4.90;2.40;;;8.60;93.20;;;8.73;79.11;96831.06;5085244;28;20446;-65
2023/03/26 09:48:44;;;;;;;3.80;2.07;;;8.70;93.70;;;8.63;79.78;96830.81;5091752;28;20942;-67
2023/03/26 09:51:43;;;;;;;5.73;2.50;;;8.60;94.00;;;8.64;79.66;96825.19;5088313;28;20799;-68
2023/03/26 09:55:10;;;;;;;6.60;3.20;;;8.50;94.60;;;8.33;80.39;96826.25;5079689;28;20484;-67
2023/03/26 09:58:04;;;;;;;5.43;1.90;;;8.50;94.60;;;8.13;80.44;96826.53;5078154;28;20749;-66
2023/03/26 10:00:40;;;;;;;7.20;2.97;;;8.30;94.60;;;8.12;80.68;96831.13;5066552;28;20450;-68
2023/03/26 10:03:28;;;;;;;6.43;3.00;;;8.30;95.00;;;8.23;81.08;96833.00;5082233;28;20465;-67
2023/03/26 10:06:18;;;;;;;6.00;3.10;;;8.30;95.40;;;8.16;81.52;96837.69;5084890;28;20771;-65
2023/03/26 10:09:38;;;;;;;7.83;2.93;;;8.30;95.40;;;8.06;82.30;96822.09;5085622;28;20863;-66
2023/03/26 10:12:21;;;;;;;5.90;2.63;;;8.20;96.90;;;8.30;80.66;96815.97;5087608;28;21003;-66
2023/03/26 10:15:02;;;;;;;9.57;2.27;;;8.20;96.10;;;8.36;81.31;96801.56;5090110;28;20453;-66
2023/03/26 10:17:46;;;;;;;8.87;2.90;;;8.30;96.30;;;8.16;81.93;96810.78;5085756;28;20462;-66
2023/03/26 10:20:49;;;;;;;11.77;2.50;;;8.30;96.00;;;8.46;81.84;96815.28;5088272;28;20477;-66
2023/03/26 10:23:49;;;;;;;10.00;3.10;;;8.40;96.60;;;8.36;81.96;96806.94;5084823;28;20521;-66
2023/03/26 10:26:54;;;;;;;5.17;2.60;;;8.40;96.30;;;8.25;81.81;96805.88;5063525;28;20478;-66
2023/03/26 10:30:01;;;;;;;6.07;2.27;;;8.30;96.00;;;8.30;81.32;96810.59;5085159;28;20447;-66
2023/03/26 10:32:42;;;;;;;3.87;2.83;;;8.30;95.80;;;7.87;81.95;96758.63;5062538;28;20946;-66
2023/03/26 10:35:26;;;;;;;6.23;3.50;;;8.30;96.30;;;8.06;82.77;96784.44;5089561;28;20502;-67
2023/03/26 10:38:14;;;;;;;9.27;3.23;;;8.20;97.50;;;8.28;82.07;96802.72;5083403;28;20477;-68
2023/03/26 10:40:54;;;;;;;4.90;2.70;;;8.30;97.50;;;8.40;81.52;96796.56;5079314;28;20570;-66
2023/03/26 10:43:51;;;;;;;8.80;3.30;;;8.40;97.10;;;8.33;82.33;96794.78;5087177;28;21008;-66
2023/03/26 10:46:54;;;;;;;5.10;3.10;;;8.40;96.50;;;7.75;81.46;96718.25;5083070;28;20457;-67
2023/03/26 10:49:48;;;;;;;5.63;3.07;;;8.40;95.50;;;8.06;82.79;96788.97;5091650;28;20447;-70
2023/03/26 10:52:21;;;;;;;3.20;2.43;;;8.30;95.80;;;8.13;82.53;96789.72;5103202;28;20455;-66
2023/03/26 10:54:56;;;;;;;6.33;2.80;;;8.30;96.20;;;8.26;82.49;96793.22;5080248;28;20459;-67
2023/03/26 10:57:38;;;;;;;3.93;2.53;;;8.30;97.00;;;8.36;81.93;96778.19;5088823;28;20450;-66
2023/03/26 11:00:22;;;;;;;7.10;2.77;;;8.40;96.20;;;8.22;82.82;96777.56;5093345;28;20465;-68
2023/03/26 11:03:14;;;;;;;4.60;3.03;;;8.30;96.50;;;8.20;81.47;96773.47;5096007;28;20440;-66
2023/03/26 11:05:50;;;;;;;4.87;2.73;;;8.40;95.60;;;8.36;81.21;96771.97;5108470;28;20800;-66
2023/03/26 11:08:25;;;;;;;7.00;3.17;;;8.50;95.30;;;8.57;80.29;96764.41;5090097;28;20451;-69